sensor_id;sensor_type;location;lat;lon;timestamp;P1;durP1;ratioP1;P2;durP2;ratioP2
33094;SDS011;19459;53.044;8.910;2023-07-28T00:02:08;4.90;;;4.25;;
33094;SDS011;19459;53.044;8.910;2023-07-28T00:04:35;6.13;;;5.05;;
33094;SDS011;19459;53.044;8.910;2023-07-28T00:07:02;4.25;;;3.72;;
33094;SDS011;19459;53.044;8.910;2023-07-28T00:09:29;4.65;;;3.88;;
33094;SDS011;19459;53.044;8.910;2023-07-28T00:11:59;5.50;;;3.42;;
33094;SDS011;19459;53.044;8.910;2023-07-28T00:14:26;5.55;;;4.13;;
33094;SDS011;19459;53.044;8.910;2023-07-28T00:16:52;5.38;;;3.78;;
33094;SDS011;19459;53.044;8.910;2023-07-28T00:19:19;6.35;;;3.40;;
33094;SDS011;19459;53.044;8.910;2023-07-28T00:21:47;6.75;;;4.50;;
33094;SDS011;19459;53.044;8.910;2023-07-28T00:24:13;8.05;;;4.32;;
33094;SDS011;19459;53.044;8.910;2023-07-28T00:26:39;5.13;;;4.63;;
33094;SDS011;19459;53.044;8.910;2023-07-28T00:29:05;8.15;;;4.50;;
33094;SDS011;19459;53.044;8.910;2023-07-28T00:31:32;8.07;;;4.97;;
33094;SDS011;19459;53.044;8.910;2023-07-28T00:33:58;7.32;;;4.82;;
33094;SDS011;19459;53.044;8.910;2023-07-28T00:36:25;11.65;;;5.10;;
33094;SDS011;19459;53.044;8.910;2023-07-28T00:38:50;6.95;;;5.07;;
33094;SDS011;19459;53.044;8.910;2023-07-28T00:41:16;10.13;;;5.70;;
33094;SDS011;19459;53.044;8.910;2023-07-28T00:43:42;14.50;;;7.05;;
33094;SDS011;19459;53.044;8.910;2023-07-28T00:46:08;12.00;;;6.95;;
33094;SDS011;19459;53.044;8.910;2023-07-28T00:48:35;10.75;;;6.70;;
33094;SDS011;19459;53.044;8.910;2023-07-28T00:51:01;8.88;;;6.43;;
33094;SDS011;19459;53.044;8.910;2023-07-28T00:53:27;9.50;;;6.68;;
33094;SDS011;19459;53.044;8.910;2023-07-28T00:55:55;9.25;;;6.18;;
33094;SDS011;19459;53.044;8.910;2023-07-28T00:58:21;10.63;;;7.28;;
33094;SDS011;19459;53.044;8.910;2023-07-28T01:00:47;10.05;;;7.28;;
33094;SDS011;19459;53.044;8.910;2023-07-28T01:03:13;11.45;;;7.15;;
33094;SDS011;19459;53.044;8.910;2023-07-28T01:05:48;17.15;;;7.57;;
33094;SDS011;19459;53.044;8.910;2023-07-28T01:08:38;13.02;;;8.27;;
33094;SDS011;19459;53.044;8.910;2023-07-28T01:11:31;9.52;;;7.60;;
33094;SDS011;19459;53.044;8.910;2023-07-28T01:13:57;12.68;;;8.85;;
33094;SDS011;19459;53.044;8.910;2023-07-28T01:16:23;10.05;;;7.80;;
33094;SDS011;19459;53.044;8.910;2023-07-28T01:18:49;13.18;;;8.55;;
33094;SDS011;19459;53.044;8.910;2023-07-28T01:21:28;14.52;;;9.65;;
33094;SDS011;19459;53.044;8.910;2023-07-28T01:26:45;15.93;;;8.98;;
33094;SDS011;19459;53.044;8.910;2023-07-28T01:29:13;14.48;;;8.57;;
33094;SDS011;19459;53.044;8.910;2023-07-28T01:31:41;12.15;;;8.23;;
33094;SDS011;19459;53.044;8.910;2023-07-28T01:34:07;16.13;;;8.45;;
33094;SDS011;19459;53.044;8.910;2023-07-28T01:36:33;17.23;;;9.65;;
33094;SDS011;19459;53.044;8.910;2023-07-28T01:38:58;12.50;;;8.80;;
33094;SDS011;19459;53.044;8.910;2023-07-28T01:41:24;13.57;;;9.02;;
33094;SDS011;19459;53.044;8.910;2023-07-28T01:43:50;11.32;;;8.65;;
33094;SDS011;19459;53.044;8.910;2023-07-28T01:46:16;12.30;;;8.85;;
33094;SDS011;19459;53.044;8.910;2023-07-28T01:48:41;13.57;;;8.50;;
33094;SDS011;19459;53.044;8.910;2023-07-28T01:51:07;13.88;;;8.40;;
33094;SDS011;19459;53.044;8.910;2023-07-28T01:53:33;18.65;;;9.18;;
33094;SDS011;19459;53.044;8.910;2023-07-28T01:55:58;13.00;;;9.00;;
33094;SDS011;19459;53.044;8.910;2023-07-28T01:58:25;13.10;;;9.60;;
33094;SDS011;19459;53.044;8.910;2023-07-28T02:00:51;12.93;;;9.57;;
33094;SDS011;19459;53.044;8.910;2023-07-28T02:03:17;14.48;;;9.02;;
33094;SDS011;19459;53.044;8.910;2023-07-28T02:05:43;16.08;;;9.60;;
33094;SDS011;19459;53.044;8.910;2023-07-28T02:08:09;13.98;;;8.90;;
33094;SDS011;19459;53.044;8.910;2023-07-28T02:10:35;12.70;;;7.45;;
33094;SDS011;19459;53.044;8.910;2023-07-28T02:13:01;13.85;;;8.77;;
33094;SDS011;19459;53.044;8.910;2023-07-28T02:15:27;12.80;;;8.52;;
33094;SDS011;19459;53.044;8.910;2023-07-28T02:17:52;11.45;;;8.00;;
33094;SDS011;19459;53.044;8.910;2023-07-28T02:20:18;14.20;;;9.07;;
33094;SDS011;19459;53.044;8.910;2023-07-28T02:22:44;16.08;;;9.35;;
33094;SDS011;19459;53.044;8.910;2023-07-28T02:25:10;17.02;;;10.02;;
33094;SDS011;19459;53.044;8.910;2023-07-28T02:27:37;13.57;;;8.52;;
33094;SDS011;19459;53.044;8.910;2023-07-28T02:30:03;20.58;;;9.38;;
33094;SDS011;19459;53.044;8.910;2023-07-28T02:32:30;13.75;;;8.35;;
33094;SDS011;19459;53.044;8.910;2023-07-28T02:34:56;14.45;;;8.43;;
33094;SDS011;19459;53.044;8.910;2023-07-28T02:37:23;14.05;;;9.20;;
33094;SDS011;19459;53.044;8.910;2023-07-28T02:39:50;15.50;;;8.52;;
33094;SDS011;19459;53.044;8.910;2023-07-28T02:42:16;13.77;;;7.85;;
33094;SDS011;19459;53.044;8.910;2023-07-28T02:44:42;13.68;;;8.25;;
33094;SDS011;19459;53.044;8.910;2023-07-28T02:47:08;15.93;;;7.72;;
33094;SDS011;19459;53.044;8.910;2023-07-28T02:49:33;15.13;;;8.27;;
33094;SDS011;19459;53.044;8.910;2023-07-28T02:52:00;14.77;;;8.20;;
33094;SDS011;19459;53.044;8.910;2023-07-28T02:54:25;14.50;;;8.68;;
33094;SDS011;19459;53.044;8.910;2023-07-28T02:56:51;21.33;;;10.65;;
33094;SDS011;19459;53.044;8.910;2023-07-28T02:59:17;22.25;;;10.88;;
33094;SDS011;19459;53.044;8.910;2023-07-28T03:01:43;16.80;;;10.13;;
33094;SDS011;19459;53.044;8.910;2023-07-28T03:04:09;16.90;;;9.77;;
33094;SDS011;19459;53.044;8.910;2023-07-28T03:06:34;20.35;;;10.90;;
33094;SDS011;19459;53.044;8.910;2023-07-28T03:09:00;18.15;;;9.40;;
33094;SDS011;19459;53.044;8.910;2023-07-28T03:11:26;18.50;;;10.48;;
33094;SDS011;19459;53.044;8.910;2023-07-28T03:13:52;14.70;;;9.80;;
33094;SDS011;19459;53.044;8.910;2023-07-28T03:16:17;15.82;;;8.40;;
33094;SDS011;19459;53.044;8.910;2023-07-28T03:18:43;14.23;;;8.18;;
33094;SDS011;19459;53.044;8.910;2023-07-28T03:21:09;12.60;;;7.38;;
33094;SDS011;19459;53.044;8.910;2023-07-28T03:23:35;11.40;;;7.82;;
33094;SDS011;19459;53.044;8.910;2023-07-28T03:26:01;10.50;;;6.97;;
33094;SDS011;19459;53.044;8.910;2023-07-28T03:28:26;14.75;;;7.20;;
33094;SDS011;19459;53.044;8.910;2023-07-28T03:30:52;11.52;;;7.15;;
33094;SDS011;19459;53.044;8.910;2023-07-28T03:33:18;9.85;;;5.82;;
33094;SDS011;19459;53.044;8.910;2023-07-28T03:35:44;5.55;;;4.28;;
33094;SDS011;19459;53.044;8.910;2023-07-28T03:38:09;7.20;;;4.90;;
33094;SDS011;19459;53.044;8.910;2023-07-28T03:40:36;12.48;;;5.22;;
33094;SDS011;19459;53.044;8.910;2023-07-28T03:43:01;6.10;;;4.15;;
33094;SDS011;19459;53.044;8.910;2023-07-28T03:45:28;8.55;;;4.57;;
33094;SDS011;19459;53.044;8.910;2023-07-28T03:47:54;7.80;;;4.20;;
33094;SDS011;19459;53.044;8.910;2023-07-28T03:50:20;8.73;;;5.10;;
33094;SDS011;19459;53.044;8.910;2023-07-28T03:52:46;8.35;;;5.85;;
33094;SDS011;19459;53.044;8.910;2023-07-28T03:55:11;12.82;;;8.57;;
33094;SDS011;19459;53.044;8.910;2023-07-28T03:57:37;13.63;;;8.48;;
33094;SDS011;19459;53.044;8.910;2023-07-28T04:00:04;12.82;;;9.77;;
33094;SDS011;19459;53.044;8.910;2023-07-28T04:02:31;15.95;;;10.50;;
33094;SDS011;19459;53.044;8.910;2023-07-28T04:04:57;18.58;;;10.57;;
33094;SDS011;19459;53.044;8.910;2023-07-28T04:07:23;18.42;;;12.30;;
33094;SDS011;19459;53.044;8.910;2023-07-28T04:09:48;21.20;;;13.27;;
33094;SDS011;19459;53.044;8.910;2023-07-28T04:12:14;21.88;;;14.88;;
33094;SDS011;19459;53.044;8.910;2023-07-28T04:14:40;20.10;;;14.50;;
33094;SDS011;19459;53.044;8.910;2023-07-28T04:17:07;21.17;;;14.90;;
33094;SDS011;19459;53.044;8.910;2023-07-28T04:19:32;29.33;;;17.63;;
33094;SDS011;19459;53.044;8.910;2023-07-28T04:21:59;26.63;;;17.42;;
33094;SDS011;19459;53.044;8.910;2023-07-28T04:24:26;28.73;;;18.67;;
33094;SDS011;19459;53.044;8.910;2023-07-28T04:26:52;28.83;;;19.33;;
33094;SDS011;19459;53.044;8.910;2023-07-28T04:29:18;30.30;;;20.33;;
33094;SDS011;19459;53.044;8.910;2023-07-28T04:31:44;34.30;;;21.02;;
33094;SDS011;19459;53.044;8.910;2023-07-28T04:34:09;35.28;;;19.88;;
33094;SDS011;19459;53.044;8.910;2023-07-28T04:36:35;30.95;;;20.92;;
33094;SDS011;19459;53.044;8.910;2023-07-28T04:39:01;36.17;;;21.27;;
33094;SDS011;19459;53.044;8.910;2023-07-28T04:41:27;31.30;;;20.27;;
33094;SDS011;19459;53.044;8.910;2023-07-28T04:43:52;29.98;;;19.17;;
33094;SDS011;19459;53.044;8.910;2023-07-28T04:46:18;29.60;;;16.55;;
33094;SDS011;19459;53.044;8.910;2023-07-28T04:48:45;21.88;;;14.23;;
33094;SDS011;19459;53.044;8.910;2023-07-28T04:51:11;23.00;;;14.85;;
33094;SDS011;19459;53.044;8.910;2023-07-28T04:53:37;24.58;;;15.10;;
33094;SDS011;19459;53.044;8.910;2023-07-28T04:56:03;24.00;;;16.30;;
33094;SDS011;19459;53.044;8.910;2023-07-28T04:58:29;27.02;;;16.63;;
33094;SDS011;19459;53.044;8.910;2023-07-28T05:00:55;28.90;;;18.40;;
33094;SDS011;19459;53.044;8.910;2023-07-28T05:03:20;32.22;;;20.65;;
33094;SDS011;19459;53.044;8.910;2023-07-28T05:05:46;31.80;;;20.10;;
33094;SDS011;19459;53.044;8.910;2023-07-28T05:08:12;35.05;;;20.25;;
33094;SDS011;19459;53.044;8.910;2023-07-28T05:10:40;41.00;;;22.88;;
33094;SDS011;19459;53.044;8.910;2023-07-28T05:13:08;30.95;;;20.95;;
33094;SDS011;19459;53.044;8.910;2023-07-28T05:15:34;37.53;;;21.02;;
33094;SDS011;19459;53.044;8.910;2023-07-28T05:18:00;38.83;;;22.20;;
33094;SDS011;19459;53.044;8.910;2023-07-28T05:20:26;37.40;;;22.60;;
33094;SDS011;19459;53.044;8.910;2023-07-28T05:22:52;40.42;;;23.17;;
33094;SDS011;19459;53.044;8.910;2023-07-28T05:25:18;42.80;;;24.92;;
33094;SDS011;19459;53.044;8.910;2023-07-28T05:27:44;37.28;;;21.52;;
33094;SDS011;19459;53.044;8.910;2023-07-28T05:30:09;38.55;;;23.35;;
33094;SDS011;19459;53.044;8.910;2023-07-28T05:32:35;43.58;;;23.73;;
33094;SDS011;19459;53.044;8.910;2023-07-28T05:35:02;46.83;;;24.10;;
33094;SDS011;19459;53.044;8.910;2023-07-28T05:37:29;36.72;;;23.40;;
33094;SDS011;19459;53.044;8.910;2023-07-28T05:39:55;50.03;;;25.65;;
33094;SDS011;19459;53.044;8.910;2023-07-28T05:42:20;49.40;;;25.02;;
33094;SDS011;19459;53.044;8.910;2023-07-28T05:44:46;49.17;;;27.27;;
33094;SDS011;19459;53.044;8.910;2023-07-28T05:47:12;49.03;;;26.35;;
33094;SDS011;19459;53.044;8.910;2023-07-28T05:49:38;42.22;;;25.05;;
33094;SDS011;19459;53.044;8.910;2023-07-28T05:52:05;51.25;;;27.20;;
33094;SDS011;19459;53.044;8.910;2023-07-28T05:54:33;50.08;;;26.13;;
33094;SDS011;19459;53.044;8.910;2023-07-28T05:56:58;48.38;;;25.38;;
33094;SDS011;19459;53.044;8.910;2023-07-28T05:59:25;61.03;;;27.00;;
33094;SDS011;19459;53.044;8.910;2023-07-28T06:01:51;54.70;;;27.60;;
33094;SDS011;19459;53.044;8.910;2023-07-28T06:04:17;56.78;;;28.30;;
33094;SDS011;19459;53.044;8.910;2023-07-28T06:06:43;53.60;;;28.55;;
33094;SDS011;19459;53.044;8.910;2023-07-28T06:09:09;57.67;;;28.60;;
33094;SDS011;19459;53.044;8.910;2023-07-28T06:11:35;54.67;;;26.88;;
33094;SDS011;19459;53.044;8.910;2023-07-28T06:14:00;48.65;;;26.77;;
33094;SDS011;19459;53.044;8.910;2023-07-28T06:16:26;56.30;;;27.73;;
33094;SDS011;19459;53.044;8.910;2023-07-28T06:18:52;58.80;;;27.95;;
33094;SDS011;19459;53.044;8.910;2023-07-28T06:21:18;58.42;;;29.70;;
33094;SDS011;19459;53.044;8.910;2023-07-28T06:23:43;57.30;;;27.90;;
33094;SDS011;19459;53.044;8.910;2023-07-28T06:26:09;46.30;;;26.13;;
33094;SDS011;19459;53.044;8.910;2023-07-28T06:28:35;50.50;;;26.98;;
33094;SDS011;19459;53.044;8.910;2023-07-28T06:31:02;46.15;;;26.08;;
33094;SDS011;19459;53.044;8.910;2023-07-28T06:33:28;45.58;;;25.02;;
33094;SDS011;19459;53.044;8.910;2023-07-28T06:35:54;48.45;;;26.48;;
33094;SDS011;19459;53.044;8.910;2023-07-28T06:38:20;44.28;;;24.88;;
33094;SDS011;19459;53.044;8.910;2023-07-28T06:40:45;47.60;;;26.17;;
33094;SDS011;19459;53.044;8.910;2023-07-28T06:43:11;42.17;;;27.67;;
33094;SDS011;19459;53.044;8.910;2023-07-28T06:45:37;41.63;;;25.38;;
33094;SDS011;19459;53.044;8.910;2023-07-28T06:48:03;52.13;;;27.20;;
33094;SDS011;19459;53.044;8.910;2023-07-28T06:50:29;50.90;;;28.23;;
33094;SDS011;19459;53.044;8.910;2023-07-28T06:52:57;47.83;;;27.35;;
33094;SDS011;19459;53.044;8.910;2023-07-28T06:55:23;58.47;;;27.58;;
33094;SDS011;19459;53.044;8.910;2023-07-28T06:57:48;54.15;;;28.60;;
33094;SDS011;19459;53.044;8.910;2023-07-28T07:00:14;43.67;;;26.98;;
33094;SDS011;19459;53.044;8.910;2023-07-28T07:02:41;45.20;;;26.98;;
33094;SDS011;19459;53.044;8.910;2023-07-28T07:05:07;47.35;;;27.95;;
33094;SDS011;19459;53.044;8.910;2023-07-28T07:07:33;46.53;;;27.15;;
33094;SDS011;19459;53.044;8.910;2023-07-28T07:09:59;41.38;;;28.15;;
33094;SDS011;19459;53.044;8.910;2023-07-28T07:12:24;41.58;;;25.98;;
33094;SDS011;19459;53.044;8.910;2023-07-28T07:14:50;43.05;;;27.25;;
33094;SDS011;19459;53.044;8.910;2023-07-28T07:17:17;39.30;;;26.40;;
33094;SDS011;19459;53.044;8.910;2023-07-28T07:19:43;49.35;;;28.23;;
33094;SDS011;19459;53.044;8.910;2023-07-28T07:22:09;43.22;;;27.30;;
33094;SDS011;19459;53.044;8.910;2023-07-28T07:24:34;51.03;;;28.50;;
33094;SDS011;19459;53.044;8.910;2023-07-28T07:27:00;43.25;;;27.63;;
33094;SDS011;19459;53.044;8.910;2023-07-28T07:29:26;49.15;;;27.20;;
33094;SDS011;19459;53.044;8.910;2023-07-28T07:31:52;43.25;;;26.23;;
33094;SDS011;19459;53.044;8.910;2023-07-28T07:34:21;44.05;;;27.98;;
33094;SDS011;19459;53.044;8.910;2023-07-28T07:36:49;46.83;;;28.35;;
33094;SDS011;19459;53.044;8.910;2023-07-28T07:39:15;47.08;;;27.50;;
33094;SDS011;19459;53.044;8.910;2023-07-28T07:41:41;42.30;;;26.25;;
33094;SDS011;19459;53.044;8.910;2023-07-28T07:44:07;43.53;;;27.02;;
33094;SDS011;19459;53.044;8.910;2023-07-28T07:46:33;36.75;;;23.15;;
33094;SDS011;19459;53.044;8.910;2023-07-28T07:48:58;40.05;;;24.40;;
33094;SDS011;19459;53.044;8.910;2023-07-28T07:51:24;45.38;;;25.80;;
33094;SDS011;19459;53.044;8.910;2023-07-28T07:53:50;38.47;;;25.00;;
33094;SDS011;19459;53.044;8.910;2023-07-28T07:56:16;40.63;;;26.73;;
33094;SDS011;19459;53.044;8.910;2023-07-28T07:58:43;44.95;;;27.05;;
33094;SDS011;19459;53.044;8.910;2023-07-28T08:01:08;45.10;;;25.33;;
33094;SDS011;19459;53.044;8.910;2023-07-28T08:03:34;43.13;;;27.27;;
33094;SDS011;19459;53.044;8.910;2023-07-28T08:06:03;49.75;;;29.63;;
33094;SDS011;19459;53.044;8.910;2023-07-28T08:08:29;48.25;;;28.60;;
33094;SDS011;19459;53.044;8.910;2023-07-28T08:10:55;49.10;;;30.58;;
33094;SDS011;19459;53.044;8.910;2023-07-28T08:13:21;52.88;;;29.35;;
33094;SDS011;19459;53.044;8.910;2023-07-28T08:15:47;41.80;;;26.75;;
33094;SDS011;19459;53.044;8.910;2023-07-28T08:18:13;46.40;;;28.83;;
33094;SDS011;19459;53.044;8.910;2023-07-28T08:20:39;45.05;;;28.27;;
33094;SDS011;19459;53.044;8.910;2023-07-28T08:23:05;41.28;;;27.65;;
33094;SDS011;19459;53.044;8.910;2023-07-28T08:25:31;41.28;;;27.17;;
33094;SDS011;19459;53.044;8.910;2023-07-28T08:27:57;39.72;;;27.08;;
33094;SDS011;19459;53.044;8.910;2023-07-28T08:30:22;40.63;;;25.73;;
33094;SDS011;19459;53.044;8.910;2023-07-28T08:32:48;38.00;;;24.15;;
33094;SDS011;19459;53.044;8.910;2023-07-28T08:35:14;33.75;;;24.70;;
33094;SDS011;19459;53.044;8.910;2023-07-28T08:37:40;31.60;;;21.85;;
33094;SDS011;19459;53.044;8.910;2023-07-28T08:40:06;38.67;;;23.67;;
33094;SDS011;19459;53.044;8.910;2023-07-28T08:42:36;28.35;;;21.88;;
33094;SDS011;19459;53.044;8.910;2023-07-28T08:45:03;29.90;;;22.10;;
33094;SDS011;19459;53.044;8.910;2023-07-28T08:47:31;30.10;;;23.02;;
33094;SDS011;19459;53.044;8.910;2023-07-28T08:49:57;39.42;;;27.10;;
33094;SDS011;19459;53.044;8.910;2023-07-28T08:52:23;30.75;;;22.60;;
33094;SDS011;19459;53.044;8.910;2023-07-28T08:54:49;34.28;;;23.58;;
33094;SDS011;19459;53.044;8.910;2023-07-28T08:57:16;32.78;;;23.90;;
33094;SDS011;19459;53.044;8.910;2023-07-28T08:59:42;30.80;;;22.05;;
33094;SDS011;19459;53.044;8.910;2023-07-28T09:02:13;38.67;;;24.45;;
33094;SDS011;19459;53.044;8.910;2023-07-28T09:04:42;29.67;;;21.70;;
33094;SDS011;19459;53.044;8.910;2023-07-28T09:07:11;35.25;;;23.00;;
33094;SDS011;19459;53.044;8.910;2023-07-28T09:09:40;29.98;;;22.00;;
33094;SDS011;19459;53.044;8.910;2023-07-28T09:12:06;32.47;;;22.05;;
33094;SDS011;19459;53.044;8.910;2023-07-28T09:14:34;35.58;;;22.50;;
33094;SDS011;19459;53.044;8.910;2023-07-28T09:17:12;37.22;;;23.00;;
33094;SDS011;19459;53.044;8.910;2023-07-28T09:22:18;34.03;;;22.17;;
33094;SDS011;19459;53.044;8.910;2023-07-28T09:24:45;32.55;;;21.30;;
33094;SDS011;19459;53.044;8.910;2023-07-28T09:27:27;34.65;;;22.45;;
33094;SDS011;19459;53.044;8.910;2023-07-28T09:29:54;35.97;;;20.98;;
33094;SDS011;19459;53.044;8.910;2023-07-28T09:32:30;31.20;;;20.13;;
33094;SDS011;19459;53.044;8.910;2023-07-28T09:35:05;29.88;;;21.70;;
33094;SDS011;19459;53.044;8.910;2023-07-28T09:37:39;29.60;;;19.60;;
33094;SDS011;19459;53.044;8.910;2023-07-28T09:40:08;24.90;;;20.20;;
33094;SDS011;19459;53.044;8.910;2023-07-28T09:42:39;26.42;;;20.35;;
33094;SDS011;19459;53.044;8.910;2023-07-28T09:45:06;22.67;;;18.15;;
33094;SDS011;19459;53.044;8.910;2023-07-28T09:47:35;29.35;;;16.25;;
33094;SDS011;19459;53.044;8.910;2023-07-28T09:50:05;22.42;;;15.98;;
33094;SDS011;19459;53.044;8.910;2023-07-28T09:52:34;20.27;;;16.90;;
33094;SDS011;19459;53.044;8.910;2023-07-28T09:55:05;30.35;;;16.75;;
33094;SDS011;19459;53.044;8.910;2023-07-28T09:57:36;22.00;;;17.30;;
33094;SDS011;19459;53.044;8.910;2023-07-28T10:00:19;30.40;;;18.13;;
33094;SDS011;19459;53.044;8.910;2023-07-28T10:02:47;25.83;;;18.70;;
33094;SDS011;19459;53.044;8.910;2023-07-28T10:05:15;27.08;;;19.40;;
33094;SDS011;19459;53.044;8.910;2023-07-28T10:07:42;27.08;;;18.67;;
33094;SDS011;19459;53.044;8.910;2023-07-28T10:10:10;26.65;;;18.55;;
33094;SDS011;19459;53.044;8.910;2023-07-28T10:12:51;21.02;;;15.85;;
33094;SDS011;19459;53.044;8.910;2023-07-28T10:15:19;26.58;;;17.48;;
33094;SDS011;19459;53.044;8.910;2023-07-28T10:17:47;21.58;;;15.45;;
33094;SDS011;19459;53.044;8.910;2023-07-28T10:20:34;20.10;;;15.98;;
33094;SDS011;19459;53.044;8.910;2023-07-28T10:23:12;25.40;;;16.05;;
33094;SDS011;19459;53.044;8.910;2023-07-28T10:25:45;18.77;;;15.00;;
33094;SDS011;19459;53.044;8.910;2023-07-28T10:28:30;19.90;;;15.55;;
33094;SDS011;19459;53.044;8.910;2023-07-28T10:31:04;20.52;;;14.32;;
33094;SDS011;19459;53.044;8.910;2023-07-28T10:33:35;14.23;;;11.48;;
33094;SDS011;19459;53.044;8.910;2023-07-28T10:36:12;19.52;;;13.65;;
33094;SDS011;19459;53.044;8.910;2023-07-28T10:38:47;16.27;;;11.98;;
33094;SDS011;19459;53.044;8.910;2023-07-28T10:44:34;13.10;;;9.45;;
33094;SDS011;19459;53.044;8.910;2023-07-28T10:47:00;13.35;;;9.57;;
33094;SDS011;19459;53.044;8.910;2023-07-28T10:49:27;19.50;;;10.48;;
33094;SDS011;19459;53.044;8.910;2023-07-28T10:51:53;14.27;;;9.20;;
33094;SDS011;19459;53.044;8.910;2023-07-28T10:54:19;15.10;;;9.95;;
33094;SDS011;19459;53.044;8.910;2023-07-28T10:56:46;11.93;;;10.32;;
33094;SDS011;19459;53.044;8.910;2023-07-28T10:59:13;11.80;;;9.57;;
33094;SDS011;19459;53.044;8.910;2023-07-28T11:01:40;11.68;;;7.78;;
33094;SDS011;19459;53.044;8.910;2023-07-28T11:04:08;13.50;;;8.10;;
33094;SDS011;19459;53.044;8.910;2023-07-28T11:06:42;10.65;;;6.63;;
33094;SDS011;19459;53.044;8.910;2023-07-28T11:09:10;14.50;;;6.72;;
33094;SDS011;19459;53.044;8.910;2023-07-28T11:11:37;11.05;;;6.22;;
33094;SDS011;19459;53.044;8.910;2023-07-28T11:14:05;8.23;;;6.15;;
33094;SDS011;19459;53.044;8.910;2023-07-28T11:16:36;5.60;;;4.95;;
33094;SDS011;19459;53.044;8.910;2023-07-28T11:19:10;6.38;;;5.40;;
33094;SDS011;19459;53.044;8.910;2023-07-28T11:21:39;11.55;;;5.90;;
33094;SDS011;19459;53.044;8.910;2023-07-28T11:24:07;7.45;;;5.60;;
33094;SDS011;19459;53.044;8.910;2023-07-28T11:26:34;9.50;;;6.25;;
33094;SDS011;19459;53.044;8.910;2023-07-28T11:29:01;5.15;;;4.30;;
33094;SDS011;19459;53.044;8.910;2023-07-28T11:31:28;7.68;;;4.05;;
33094;SDS011;19459;53.044;8.910;2023-07-28T11:33:55;10.15;;;4.88;;
33094;SDS011;19459;53.044;8.910;2023-07-28T11:36:24;5.28;;;4.72;;
33094;SDS011;19459;53.044;8.910;2023-07-28T11:38:52;12.45;;;5.22;;
33094;SDS011;19459;53.044;8.910;2023-07-28T11:41:22;7.22;;;4.85;;
33094;SDS011;19459;53.044;8.910;2023-07-28T11:43:49;9.10;;;4.93;;
33094;SDS011;19459;53.044;8.910;2023-07-28T11:46:37;6.10;;;3.95;;
33094;SDS011;19459;53.044;8.910;2023-07-28T11:49:08;4.30;;;3.90;;
33094;SDS011;19459;53.044;8.910;2023-07-28T11:51:48;8.02;;;4.05;;
33094;SDS011;19459;53.044;8.910;2023-07-28T11:54:17;9.70;;;5.88;;
33094;SDS011;19459;53.044;8.910;2023-07-28T11:56:47;7.45;;;4.72;;
33094;SDS011;19459;53.044;8.910;2023-07-28T11:59:15;4.53;;;4.13;;
33094;SDS011;19459;53.044;8.910;2023-07-28T12:02:02;5.18;;;4.70;;
33094;SDS011;19459;53.044;8.910;2023-07-28T12:04:31;7.30;;;4.55;;
33094;SDS011;19459;53.044;8.910;2023-07-28T12:12:14;7.05;;;4.90;;
33094;SDS011;19459;53.044;8.910;2023-07-28T12:14:41;6.45;;;4.70;;
33094;SDS011;19459;53.044;8.910;2023-07-28T12:17:23;8.43;;;4.95;;
33094;SDS011;19459;53.044;8.910;2023-07-28T12:20:06;9.38;;;5.25;;
33094;SDS011;19459;53.044;8.910;2023-07-28T12:22:39;7.85;;;4.65;;
33094;SDS011;19459;53.044;8.910;2023-07-28T12:25:06;5.22;;;4.70;;
33094;SDS011;19459;53.044;8.910;2023-07-28T12:27:33;7.22;;;5.20;;
33094;SDS011;19459;53.044;8.910;2023-07-28T12:30:03;6.93;;;4.00;;
33094;SDS011;19459;53.044;8.910;2023-07-28T12:32:29;6.63;;;3.90;;
33094;SDS011;19459;53.044;8.910;2023-07-28T12:34:55;4.80;;;3.60;;
33094;SDS011;19459;53.044;8.910;2023-07-28T12:37:21;6.07;;;3.40;;
33094;SDS011;19459;53.044;8.910;2023-07-28T12:39:47;5.72;;;3.28;;
33094;SDS011;19459;53.044;8.910;2023-07-28T12:42:16;4.38;;;2.95;;
33094;SDS011;19459;53.044;8.910;2023-07-28T12:44:42;4.57;;;3.13;;
33094;SDS011;19459;53.044;8.910;2023-07-28T12:47:08;3.92;;;3.08;;
33094;SDS011;19459;53.044;8.910;2023-07-28T12:49:34;3.92;;;3.05;;
33094;SDS011;19459;53.044;8.910;2023-07-28T12:52:00;5.15;;;2.83;;
33094;SDS011;19459;53.044;8.910;2023-07-28T12:54:29;9.02;;;3.40;;
33094;SDS011;19459;53.044;8.910;2023-07-28T12:56:55;4.00;;;3.30;;
33094;SDS011;19459;53.044;8.910;2023-07-28T12:59:20;4.10;;;2.90;;
33094;SDS011;19459;53.044;8.910;2023-07-28T13:01:46;4.25;;;2.75;;
33094;SDS011;19459;53.044;8.910;2023-07-28T13:04:12;9.45;;;3.10;;
33094;SDS011;19459;53.044;8.910;2023-07-28T13:06:38;3.88;;;3.00;;
33094;SDS011;19459;53.044;8.910;2023-07-28T13:09:06;5.63;;;2.92;;
33094;SDS011;19459;53.044;8.910;2023-07-28T13:11:33;4.75;;;2.70;;
33094;SDS011;19459;53.044;8.910;2023-07-28T13:13:59;2.90;;;2.70;;
33094;SDS011;19459;53.044;8.910;2023-07-28T13:16:25;4.13;;;3.10;;
33094;SDS011;19459;53.044;8.910;2023-07-28T13:18:51;11.07;;;3.55;;
33094;SDS011;19459;53.044;8.910;2023-07-28T13:21:17;4.40;;;3.55;;
33094;SDS011;19459;53.044;8.910;2023-07-28T13:23:43;7.38;;;4.20;;
33094;SDS011;19459;53.044;8.910;2023-07-28T13:26:09;5.82;;;4.00;;
33094;SDS011;19459;53.044;8.910;2023-07-28T13:28:35;8.82;;;5.22;;
33094;SDS011;19459;53.044;8.910;2023-07-28T13:31:02;9.18;;;6.55;;
33094;SDS011;19459;53.044;8.910;2023-07-28T13:33:29;9.80;;;6.10;;
33094;SDS011;19459;53.044;8.910;2023-07-28T13:35:55;5.85;;;4.20;;
33094;SDS011;19459;53.044;8.910;2023-07-28T13:38:21;7.40;;;4.32;;
33094;SDS011;19459;53.044;8.910;2023-07-28T13:40:47;6.68;;;3.67;;
33094;SDS011;19459;53.044;8.910;2023-07-28T13:43:13;6.45;;;3.50;;
33094;SDS011;19459;53.044;8.910;2023-07-28T13:45:38;12.85;;;5.45;;
33094;SDS011;19459;53.044;8.910;2023-07-28T13:48:04;14.43;;;5.65;;
33094;SDS011;19459;53.044;8.910;2023-07-28T13:50:30;8.32;;;4.05;;
33094;SDS011;19459;53.044;8.910;2023-07-28T13:52:56;14.82;;;5.38;;
33094;SDS011;19459;53.044;8.910;2023-07-28T13:55:22;7.75;;;3.00;;
33094;SDS011;19459;53.044;8.910;2023-07-28T13:57:48;9.07;;;5.43;;
33094;SDS011;19459;53.044;8.910;2023-07-28T14:00:14;7.63;;;5.78;;
33094;SDS011;19459;53.044;8.910;2023-07-28T14:02:40;5.32;;;3.72;;
33094;SDS011;19459;53.044;8.910;2023-07-28T14:05:06;2.85;;;2.42;;
33094;SDS011;19459;53.044;8.910;2023-07-28T14:07:32;5.40;;;2.90;;
33094;SDS011;19459;53.044;8.910;2023-07-28T14:09:59;2.97;;;2.40;;
33094;SDS011;19459;53.044;8.910;2023-07-28T14:12:26;2.88;;;2.53;;
33094;SDS011;19459;53.044;8.910;2023-07-28T14:14:52;7.03;;;3.30;;
33094;SDS011;19459;53.044;8.910;2023-07-28T14:17:17;2.75;;;2.40;;
33094;SDS011;19459;53.044;8.910;2023-07-28T14:19:43;6.63;;;3.40;;
33094;SDS011;19459;53.044;8.910;2023-07-28T14:22:09;5.22;;;2.90;;
33094;SDS011;19459;53.044;8.910;2023-07-28T14:24:35;4.53;;;3.65;;
33094;SDS011;19459;53.044;8.910;2023-07-28T14:27:01;7.53;;;3.33;;
33094;SDS011;19459;53.044;8.910;2023-07-28T14:29:27;3.60;;;2.70;;
33094;SDS011;19459;53.044;8.910;2023-07-28T14:31:53;6.90;;;3.55;;
33094;SDS011;19459;53.044;8.910;2023-07-28T14:34:18;6.82;;;3.28;;
33094;SDS011;19459;53.044;8.910;2023-07-28T14:36:44;4.05;;;2.92;;
33094;SDS011;19459;53.044;8.910;2023-07-28T14:39:10;4.22;;;3.22;;
33094;SDS011;19459;53.044;8.910;2023-07-28T14:41:36;4.43;;;2.92;;
33094;SDS011;19459;53.044;8.910;2023-07-28T14:44:05;4.35;;;3.03;;
33094;SDS011;19459;53.044;8.910;2023-07-28T14:46:30;4.65;;;2.78;;
33094;SDS011;19459;53.044;8.910;2023-07-28T14:48:56;3.20;;;2.90;;